Portada
METAR-TAF:

METAR-TAF

Aeroports :

Iakutsk, Rússia

latitud: 62-01N, longitud: 129-43E, altitud: 103 m

Observació

L'informe es va fer fa 43 minuts, a les 18:30 UTC
Vent calma
Temperatura -42°C
Humitat 64%
Pressió 1011 hPa
Visibilitat: 0300 m
boira

METAR: UEEE 091830Z 00000MPS 0400 0300NE R23L/0800N FG NSC M42/M46 Q1011 R23L/490150 NOSIG RMK QFE749

Hora: 04:13 (19:13 UTC)

Pronòstic

L'informe es va fer fa 2 hores i 13 minuts, a les 17:00 UTC
Pronòstic vàlid del 09 a les 18 UTC al 10 a les 24 UTC
Vent 2 kt amb direcció variable
Visibilitat: 0300 m
a una alçada de 200 ft
boira
Temporalment
l' 09 a les 18 UTC al 10 a les 09 UTC
Visibilitat: 0700 m
boira

TAF: UEEE 091700Z 0918/1024 VRB01MPS 0300 FG VV002 TXM40/1005Z TNM44/0923Z TEMPO 0918/1009 0700 FG NSC

Observacions i pronòstics meteorològics de més de 4000 aeroports (METAR i TAF).

Les estacions disponibles són els punts grocs i vermells al mapa.

Posi el ratolí al punt desitjat per veure el nom de l'estació.

Feu clic per veure les observacions i els pronòstics meteorològics.

Per canviar el mapa: feu clic els botons verds amb una creu de color negre per apropar; al botó verd amb un guió per allunyar la imatge; o en les fletxes verdes per a mapes adjacents.


METAR-TAF: